Terminal Aerodrome Forecast
Issued by NWS Sterling, VA

Current Version | Previous Version | Graphics & Text | Print | Product List | Glossary On
Versions: 1 2 3 4 5 6 7 8 9 10 11 12 13 14 15 16 17 18 19 20 21
000
FTUS41 KLWX 271726
TAFMRB
TAF
KMRB 271726Z 2718/2818 13009KT 4SM -SHRA OVC008
     FM272100 18011KT 2SM +SHRA VCTS OVC008CB
     FM280000 19010KT 2SM SHRA OVC008
     FM280300 23006KT 6SM -SHRA OVC015
     FM281000 25009KT P6SM SCT060
     FM281300 26014G22KT P6SM BKN050=

USA.gov is the U.S. government's official web portal to all federal, state and local government web resources and services.